Time;durP1;ratioP1;P1;durP2;ratioP2;P2;SDS_P1;SDS_P2;PMS_P1;PMS_P2;Temp;Humidity;BMP_temperature;BMP_pressure;BME280_temperature;BME280_humidity;BME280_pressure;Samples;Min_cycle;Max_cycle;Signal;HPM_P1;HPM_P2
2023/01/04 00:01:49;;;;;;;;;;;;;;;;;;6173336;23;19923;-87
2023/01/04 00:04:14;;;;;;;;;;;;;;;;;;6119264;23;19935;-87
2023/01/04 00:06:42;;;;;;;;;;;;;;;;;;6144817;23;19920;-88
2023/01/04 00:09:09;;;;;;;;;;;;;;;;;;6141846;23;19943;-87
2023/01/04 00:11:42;;;;;;;;;;;;;;;;;;6144559;23;19928;-87
2023/01/04 00:14:09;;;;;;;;;;;;;;;;;;6116173;23;19931;-86
2023/01/04 00:16:35;;;;;;;;;;;;;;;;;;6141365;23;20269;-87
2023/01/04 00:19:02;;;;;;;;;;;;;;;;;;6168952;23;19920;-87
2023/01/04 00:21:30;;;;;;;;;;;;;;;;;;6169630;23;19928;-87
2023/01/04 00:23:57;;;;;;;;;;;;;;;;;;6140292;23;19916;-88
2023/01/04 00:26:23;;;;;;;;;;;;;;;;;;6148150;23;19920;-89
2023/01/04 00:28:50;;;;;;;;;;;;;;;;;;6120409;23;19924;-87
2023/01/04 00:31:32;;;;;;;;;;;;;;;;;;6078654;23;19921;-88
2023/01/04 00:33:59;;;;;;;;;;;;;;;;;;6054977;23;19925;-87
2023/01/04 00:36:25;;;;;;;;;;;;;;;;;;6058505;23;20363;-87
2023/01/04 00:39:14;;;;;;;;;;;;;;;;;;6078145;23;19921;-87
2023/01/04 00:41:47;;;;;;;;;;;;;;;;;;6078387;23;19921;-86
2023/01/04 00:44:13;;;;;;;;;;;;;;;;;;6050367;23;20486;-87
2023/01/04 00:46:40;;;;;;;;;;;;;;;;;;6066194;23;20505;-87
2023/01/04 00:49:06;;;;;;;;;;;;;;;;;;6104331;23;20011;-86
2023/01/04 00:51:32;;;;;;;;;;;;;;;;;;6083364;23;19999;-86
2023/01/04 00:53:59;;;;;;;;;;;;;;;;;;6055550;23;19933;-87
2023/01/04 00:56:42;;;;;;;;;;;;;;;;;;6108864;23;19932;-87
2023/01/04 00:59:08;;;;;;;;;;;;;;;;;;6059326;23;19916;-87
2023/01/04 01:01:35;;;;;;;;;;;;;;;;;;6110852;23;20309;-87
2023/01/04 01:04:04;;;;;;;;;;;;;;;;;;6137752;23;19921;-88
2023/01/04 01:06:31;;;;;;;;;;;;;;;;;;6145440;23;19988;-87
2023/01/04 01:08:57;;;;;;;;;;;;;;;;;;6141359;23;19921;-88
2023/01/04 01:11:23;;;;;;;;;;;;;;;;;;6145014;23;19921;-87
2023/01/04 01:13:54;;;;;;;;;;;;;;;;;;6145265;23;19928;-87
2023/01/04 01:16:21;;;;;;;;;;;;;;;;;;6120624;23;19928;-87
2023/01/04 01:18:48;;;;;;;;;;;;;;;;;;6147756;23;19959;-88
2023/01/04 01:21:15;;;;;;;;;;;;;;;;;;6172119;23;20317;-88
2023/01/04 01:23:42;;;;;;;;;;;;;;;;;;6141742;23;19927;-88
2023/01/04 01:26:10;;;;;;;;;;;;;;;;;;6142124;23;19954;-87
2023/01/04 01:28:41;;;;;;;;;;;;;;;;;;6174549;23;20001;-87
2023/01/04 01:31:12;;;;;;;;;;;;;;;;;;6165436;23;19924;-87
2023/01/04 01:33:38;;;;;;;;;;;;;;;;;;6140247;23;19924;-87
2023/01/04 01:36:07;;;;;;;;;;;;;;;;;;6139102;23;19920;-88
2023/01/04 01:38:33;;;;;;;;;;;;;;;;;;6142435;23;19927;-86
2023/01/04 01:40:59;;;;;;;;;;;;;;;;;;6139805;23;20265;-87
2023/01/04 01:43:26;;;;;;;;;;;;;;;;;;6166469;23;19920;-87
2023/01/04 01:45:53;;;;;;;;;;;;;;;;;;6143598;23;19935;-87
2023/01/04 01:48:20;;;;;;;;;;;;;;;;;;6172644;23;19991;-87
2023/01/04 01:50:47;;;;;;;;;;;;;;;;;;6197976;23;19966;-87
2023/01/04 01:53:13;;;;;;;;;;;;;;;;;;6169759;23;20196;-87
2023/01/04 01:55:41;;;;;;;;;;;;;;;;;;6146992;23;20345;-86
2023/01/04 01:58:07;;;;;;;;;;;;;;;;;;6195669;23;19987;-87
2023/01/04 02:00:33;;;;;;;;;;;;;;;;;;6197044;23;20020;-86
2023/01/04 02:03:00;;;;;;;;;;;;;;;;;;6139473;23;19989;-87
2023/01/04 02:05:28;;;;;;;;;;;;;;;;;;6146231;23;19920;-87
2023/01/04 02:07:54;;;;;;;;;;;;;;;;;;6140490;23;20679;-87
2023/01/04 02:10:27;;;;;;;;;;;;;;;;;;6171127;23;19926;-87
2023/01/04 02:12:54;;;;;;;;;;;;;;;;;;6191957;23;19974;-87
2023/01/04 02:15:20;;;;;;;;;;;;;;;;;;6196301;23;20050;-87
2023/01/04 02:17:53;;;;;;;;;;;;;;;;;;6145686;23;20017;-87
2023/01/04 02:20:21;;;;;;;;;;;;;;;;;;6171545;23;19960;-86
2023/01/04 02:22:48;;;;;;;;;;;;;;;;;;6146612;23;19916;-87
2023/01/04 02:25:14;;;;;;;;;;;;;;;;;;6193841;23;19948;-87
2023/01/04 02:27:41;;;;;;;;;;;;;;;;;;6197202;23;19987;-87
2023/01/04 02:30:08;;;;;;;;;;;;;;;;;;6142273;23;19919;-87
2023/01/04 02:32:35;;;;;;;;;;;;;;;;;;6171812;23;20003;-87
2023/01/04 02:35:03;;;;;;;;;;;;;;;;;;6168318;23;19920;-87
2023/01/04 02:37:28;;;;;;;;;;;;;;;;;;6146785;23;20338;-86
2023/01/04 02:39:56;;;;;;;;;;;;;;;;;;6197676;23;20245;-86
2023/01/04 02:42:23;;;;;;;;;;;;;;;;;;6144275;23;19920;-86
2023/01/04 02:44:52;;;;;;;;;;;;;;;;;;6196299;23;19920;-86
2023/01/04 02:50:29;;;;;;;;;;;;;;;;;;6197570;23;20017;-86
2023/01/04 02:50:34;;;;;;;;;;;;;;;;;;6198045;23;20348;-86
2023/01/04 02:53:01;;;;;;;;;;;;;;;;;;6197641;23;20337;-86
2023/01/04 02:55:28;;;;;;;;;;;;;;;;;;6199737;23;20281;-86
2023/01/04 02:57:55;;;;;;;;;;;;;;;;;;6192351;23;20345;-87
2023/01/04 03:00:24;;;;;;;;;;;;;;;;;;6172242;23;20011;-87
2023/01/04 03:08:43;;;;;;;;;;;;;;;;;;6163862;23;19942;-86
2023/01/04 03:12:30;;;;;;;;;;;;;;;;;;6193892;23;19924;-87
2023/01/04 03:14:08;;;;;;;;;;;;;;;;;;6168335;23;20300;-86
2023/01/04 03:16:37;;;;;;;;;;;;;;;;;;6197270;23;19919;-88
2023/01/04 03:19:08;;;;;;;;;;;;;;;;;;6194826;23;19919;-87
2023/01/04 03:21:34;;;;;;;;;;;;;;;;;;6197280;23;19943;-87
2023/01/04 03:35:25;;;;;;;;;;;;;;;;;;6194382;23;19920;-87
2023/01/04 03:49:43;;;;;;;;;;;;;;;;;;6104465;23;19928;-87
2023/01/04 03:52:12;;;;;;;;;;;;;;;;;;6102922;23;20433;-87
2023/01/04 03:54:38;;;;;;;;;;;;;;;;;;6082427;23;20329;-86
2023/01/04 03:57:24;;;;;;;;;;;;;;;;;;6106617;23;19967;-86
2023/01/04 03:59:53;;;;;;;;;;;;;;;;;;6078940;23;19948;-87
2023/01/04 04:02:18;;;;;;;;;;;;;;;;;;6082319;23;19996;-87
2023/01/04 04:10:27;;;;;;;;;;;;;;;;;;5113943;27;19918;-86
2023/01/04 04:12:53;;;;;;;;;;;;;;;;;;5091201;27;19934;-86
2023/01/04 04:15:19;;;;;;;;;;;;;;;;;;5110492;27;19970;-86
2023/01/04 04:17:45;;;;;;;;;;;;;;;;;;5107323;27;19927;-86
2023/01/04 04:20:11;;;;;;;;;;;;;;;;;;5111732;27;20921;-86
2023/01/04 04:22:37;;;;;;;;;;;;;;;;;;5090390;27;19923;-86
2023/01/04 04:25:03;;;;;;;;;;;;;;;;;;5092771;27;20001;-86
2023/01/04 04:27:29;;;;;;;;;;;;;;;;;;5098443;27;19984;-86
2023/01/04 04:29:55;;;;;;;;;;;;;;;;;;5093353;27;19927;-87
2023/01/04 04:32:21;;;;;;;;;;;;;;;;;;5087258;27;19923;-86
2023/01/04 04:34:47;;;;;;;;;;;;;;;;;;5103586;27;19930;-87
2023/01/04 04:37:13;;;;;;;;;;;;;;;;;;5117387;27;19928;-87
2023/01/04 04:39:39;;;;;;;;;;;;;;;;;;5081561;27;20109;-87
2023/01/04 04:42:05;;;;;;;;;;;;;;;;;;5091530;27;20409;-87
2023/01/04 04:44:31;;;;;;;;;;;;;;;;;;5077545;27;19964;-86
2023/01/04 04:46:57;;;;;;;;;;;;;;;;;;5095121;27;19936;-86
2023/01/04 04:49:23;;;;;;;;;;;;;;;;;;5081528;27;19927;-86
2023/01/04 04:51:49;;;;;;;;;;;;;;;;;;5080669;27;19920;-86
2023/01/04 04:54:21;;;;;;;;;;;;;;;;;;5097000;27;19930;-86
2023/01/04 04:56:47;;;;;;;;;;;;;;;;;;5097916;27;19962;-86
2023/01/04 04:59:13;;;;;;;;;;;;;;;;;;5099219;27;20033;-86
2023/01/04 05:01:39;;;;;;;;;;;;;;;;;;5091568;27;20031;-87
2023/01/04 05:04:05;;;;;;;;;;;;;;;;;;5091386;27;20490;-87
2023/01/04 05:06:31;;;;;;;;;;;;;;;;;;5094581;27;20023;-86
2023/01/04 05:08:57;;;;;;;;;;;;;;;;;;5070843;27;20842;-86
2023/01/04 05:14:08;;;;;;;;;;;;;;;;;;5089602;27;20042;-86
2023/01/04 05:16:34;;;;;;;;;;;;;;;;;;5098733;27;19928;-88
2023/01/04 05:19:00;;;;;;;;;;;;;;;;;;5060191;27;19927;-87
2023/01/04 05:21:26;;;;;;;;;;;;;;;;;;5083841;27;19927;-86
2023/01/04 05:23:52;;;;;;;;;;;;;;;;;;5080599;27;19927;-86
2023/01/04 05:26:17;;;;;;;;;;;;;;;;;;5084410;27;20326;-86
2023/01/04 05:28:43;;;;;;;;;;;;;;;;;;5080111;27;19927;-85
2023/01/04 05:31:09;;;;;;;;;;;;;;;;;;5083546;27;19923;-86
2023/01/04 05:33:35;;;;;;;;;;;;;;;;;;5088743;27;19927;-86
2023/01/04 05:36:01;;;;;;;;;;;;;;;;;;5084355;27;19955;-85
2023/01/04 05:38:27;;;;;;;;;;;;;;;;;;5086478;27;20430;-86
2023/01/04 05:40:53;;;;;;;;;;;;;;;;;;5078195;27;20472;-88
2023/01/04 05:43:19;;;;;;;;;;;;;;;;;;5075816;27;19980;-86
2023/01/04 05:45:45;;;;;;;;;;;;;;;;;;5081555;27;19946;-88
2023/01/04 05:48:11;;;;;;;;;;;;;;;;;;5080139;27;19932;-86
2023/01/04 05:50:37;;;;;;;;;;;;;;;;;;5081014;27;19959;-87
2023/01/04 05:53:03;;;;;;;;;;;;;;;;;;5078155;27;19935;-87
2023/01/04 05:55:29;;;;;;;;;;;;;;;;;;5076723;27;19966;-86
2023/01/04 05:57:55;;;;;;;;;;;;;;;;;;5072236;27;19924;-88
2023/01/04 06:00:21;;;;;;;;;;;;;;;;;;5067461;27;19926;-86
2023/01/04 06:02:47;;;;;;;;;;;;;;;;;;5089159;27;20014;-87
2023/01/04 06:05:13;;;;;;;;;;;;;;;;;;5092891;27;19976;-88
2023/01/04 06:07:39;;;;;;;;;;;;;;;;;;5077778;28;20447;-86
2023/01/04 06:10:05;;;;;;;;;;;;;;;;;;5056395;28;20306;-87
2023/01/04 06:12:31;;;;;;;;;;;;;;;;;;5077712;28;20010;-87
2023/01/04 06:14:57;;;;;;;;;;;;;;;;;;5059834;28;20323;-88
2023/01/04 06:17:39;;;;;;;;;;;;;;;;;;;;;
2023/01/04 06:25:40;;;;;;;;;;;;;;;;;;5580351;22;19985;-87
2023/01/04 06:28:06;;;;;;;;;;;;;;;;;;4989579;28;19925;-88
2023/01/04 06:30:32;;;;;;;;;;;;;;;;;;5015366;28;19921;-86
2023/01/04 06:32:58;;;;;;;;;;;;;;;;;;5013839;28;19920;-87
2023/01/04 06:35:23;;;;;;;;;;;;;;;;;;5016369;28;20802;-87
2023/01/04 06:37:53;;;;;;;;;;;;;;;;;;5010303;28;20016;-86
2023/01/04 06:40:19;;;;;;;;;;;;;;;;;;5009175;28;20403;-87
2023/01/04 06:42:45;;;;;;;;;;;;;;;;;;5005246;28;20011;-87
2023/01/04 06:45:10;;;;;;;;;;;;;;;;;;5015684;28;21926;-87
2023/01/04 06:47:36;;;;;;;;;;;;;;;;;;5006149;28;19933;-87
2023/01/04 06:50:03;;;;;;;;;;;;;;;;;;5000545;28;20384;-86
2023/01/04 06:52:29;;;;;;;;;;;;;;;;;;5015015;28;19933;-88
2023/01/04 06:54:55;;;;;;;;;;;;;;;;;;5006383;28;19952;-87
2023/01/04 06:57:21;;;;;;;;;;;;;;;;;;5022671;28;19975;-86
2023/01/04 06:59:47;;;;;;;;;;;;;;;;;;5023221;28;19936;-87
2023/01/04 07:02:13;;;;;;;;;;;;;;;;;;5007213;28;19925;-87
2023/01/04 07:04:40;;;;;;;;;;;;;;;;;;5014401;28;19955;-87
2023/01/04 07:07:06;;;;;;;;;;;;;;;;;;5004185;28;19935;-86
2023/01/04 07:09:32;;;;;;;;;;;;;;;;;;5013879;28;19932;-88
2023/01/04 07:11:58;;;;;;;;;;;;;;;;;;5010085;28;19932;-86
2023/01/04 07:14:24;;;;;;;;;;;;;;;;;;5014685;28;19929;-87
2023/01/04 07:16:50;;;;;;;;;;;;;;;;;;5001119;28;19932;-87
2023/01/04 07:19:16;;;;;;;;;;;;;;;;;;4999951;28;20015;-87
2023/01/04 07:21:42;;;;;;;;;;;;;;;;;;5008418;28;19935;-86
2023/01/04 07:24:08;;;;;;;;;;;;;;;;;;4993204;28;19925;-87
2023/01/04 07:26:34;;;;;;;;;;;;;;;;;;4981692;28;20330;-87
2023/01/04 07:29:15;;;;;;;;;;;;;;;;;;4993480;28;19921;-87
2023/01/04 07:31:41;;;;;;;;;;;;;;;;;;4991504;28;19959;-87
2023/01/04 07:34:07;;;;;;;;;;;;;;;;;;4992582;28;19936;-88
2023/01/04 07:36:33;;;;;;;;;;;;;;;;;;4993087;28;19936;-86
2023/01/04 07:38:59;;;;;;;;;;;;;;;;;;4984197;28;19928;-87
2023/01/04 07:41:25;;;;;;;;;;;;;;;;;;4981803;28;19929;-87
2023/01/04 07:43:51;;;;;;;;;;;;;;;;;;4979065;28;19921;-87
2023/01/04 07:46:17;;;;;;;;;;;;;;;;;;4983097;28;19933;-88
2023/01/04 07:48:43;;;;;;;;;;;;;;;;;;4997625;28;19970;-88
2023/01/04 07:51:09;;;;;;;;;;;;;;;;;;4992586;28;19936;-86
2023/01/04 07:53:35;;;;;;;;;;;;;;;;;;4999880;28;19936;-86
2023/01/04 07:56:01;;;;;;;;;;;;;;;;;;4986756;28;20019;-86
2023/01/04 07:58:30;;;;;;;;;;;;;;;;;;4994606;28;19929;-86
2023/01/04 08:00:56;;;;;;;;;;;;;;;;;;4989509;28;19948;-87
2023/01/04 08:03:22;;;;;;;;;;;;;;;;;;4980851;28;19925;-88
2023/01/04 08:05:48;;;;;;;;;;;;;;;;;;4993812;28;19939;-87
2023/01/04 08:08:14;;;;;;;;;;;;;;;;;;4978315;28;20372;-86
2023/01/04 08:10:40;;;;;;;;;;;;;;;;;;4997859;28;19925;-86
2023/01/04 08:13:06;;;;;;;;;;;;;;;;;;4976325;28;19968;-87
2023/01/04 08:15:32;;;;;;;;;;;;;;;;;;4985083;28;20012;-88
2023/01/04 08:17:58;;;;;;;;;;;;;;;;;;4981774;28;19922;-88
2023/01/04 08:20:24;;;;;;;;;;;;;;;;;;4984294;28;20380;-86
2023/01/04 08:22:50;;;;;;;;;;;;;;;;;;4999914;28;21057;-86
2023/01/04 08:25:16;;;;;;;;;;;;;;;;;;4981999;28;20027;-88
2023/01/04 08:27:42;;;;;;;;;;;;;;;;;;4986861;28;19936;-86
2023/01/04 08:30:08;;;;;;;;;;;;;;;;;;4993183;28;20828;-86
2023/01/04 08:32:34;;;;;;;;;;;;;;;;;;4983599;28;19925;-88
2023/01/04 08:35:00;;;;;;;;;;;;;;;;;;4991367;28;19932;-87
2023/01/04 08:37:27;;;;;;;;;;;;;;;;;;4995973;28;19930;-86
2023/01/04 08:39:53;;;;;;;;;;;;;;;;;;4997133;28;20707;-87
2023/01/04 08:42:19;;;;;;;;;;;;;;;;;;5005031;28;19929;-87
2023/01/04 08:44:45;;;;;;;;;;;;;;;;;;4991127;28;20376;-86
2023/01/04 08:47:11;;;;;;;;;;;;;;;;;;4971499;28;20783;-86
2023/01/04 08:49:37;;;;;;;;;;;;;;;;;;4983833;28;20323;-87
2023/01/04 08:52:03;;;;;;;;;;;;;;;;;;4994388;28;19936;-86
2023/01/04 08:54:29;;;;;;;;;;;;;;;;;;5003599;28;20265;-86
2023/01/04 08:56:55;;;;;;;;;;;;;;;;;;4999168;28;19936;-87
2023/01/04 08:59:21;;;;;;;;;;;;;;;;;;4978565;28;19947;-86
2023/01/04 09:01:47;;;;;;;;;;;;;;;;;;4978453;28;21420;-86
2023/01/04 09:04:13;;;;;;;;;;;;;;;;;;4982120;28;19936;-86
2023/01/04 09:06:39;;;;;;;;;;;;;;;;;;4988452;28;19972;-86
2023/01/04 09:09:05;;;;;;;;;;;;;;;;;;4991303;28;19936;-87
2023/01/04 09:11:31;;;;;;;;;;;;;;;;;;4981117;28;20326;-87
2023/01/04 09:13:57;;;;;;;;;;;;;;;;;;4985400;28;19956;-87
2023/01/04 09:16:23;;;;;;;;;;;;;;;;;;4995675;28;19933;-86
2023/01/04 09:18:49;;;;;;;;;;;;;;;;;;4973865;28;19929;-86
2023/01/04 09:21:15;;;;;;;;;;;;;;;;;;4988364;28;20383;-85
2023/01/04 09:23:41;;;;;;;;;;;;;;;;;;5000088;28;20083;-86
2023/01/04 09:26:07;;;;;;;;;;;;;;;;;;4993400;28;19945;-86
2023/01/04 09:28:32;;;;;;;;;;;;;;;;;;4998663;28;22760;-87
2023/01/04 09:30:58;;;;;;;;;;;;;;;;;;4997901;28;19929;-87
2023/01/04 09:33:24;;;;;;;;;;;;;;;;;;4998446;28;19952;-86
2023/01/04 09:35:50;;;;;;;;;;;;;;;;;;4977684;28;19925;-86
2023/01/04 09:38:16;;;;;;;;;;;;;;;;;;4982870;28;20833;-86
2023/01/04 09:40:42;;;;;;;;;;;;;;;;;;5007302;28;19952;-87
2023/01/04 09:43:10;;;;;;;;;;;;;;;;;;4976831;28;20387;-87
2023/01/04 09:45:36;;;;;;;;;;;;;;;;;;4999892;28;19925;-86
2023/01/04 09:48:02;;;;;;;;;;;;;;;;;;4984644;28;19964;-87
2023/01/04 09:50:28;;;;;;;;;;;;;;;;;;4993026;28;20352;-86
2023/01/04 09:52:54;;;;;;;;;;;;;;;;;;4989129;28;19925;-85
2023/01/04 09:55:20;;;;;;;;;;;;;;;;;;4990374;28;19925;-87
2023/01/04 09:57:46;;;;;;;;;;;;;;;;;;4979623;28;20402;-88
2023/01/04 10:00:12;;;;;;;;;;;;;;;;;;4988554;28;20215;-86
2023/01/04 10:02:38;;;;;;;;;;;;;;;;;;4979743;28;19927;-87
2023/01/04 10:05:04;;;;;;;;;;;;;;;;;;4995601;28;20384;-86
2023/01/04 10:07:30;;;;;;;;;;;;;;;;;;4973123;28;19963;-86
2023/01/04 10:09:56;;;;;;;;;;;;;;;;;;4991569;28;19967;-86
2023/01/04 10:12:22;;;;;;;;;;;;;;;;;;4986288;28;20672;-88
2023/01/04 10:14:48;;;;;;;;;;;;;;;;;;4995040;28;19925;-86
2023/01/04 10:17:14;;;;;;;;;;;;;;;;;;4990193;28;19928;-86
2023/01/04 10:19:40;;;;;;;;;;;;;;;;;;4994325;28;19929;-86
2023/01/04 10:22:06;;;;;;;;;;;;;;;;;;4971630;28;20280;-87
2023/01/04 10:24:32;;;;;;;;;;;;;;;;;;5000034;28;19929;-86
2023/01/04 10:26:58;;;;;;;;;;;;;;;;;;4987054;28;20725;-87
2023/01/04 10:29:25;;;;;;;;;;;;;;;;;;4984418;28;19924;-86
2023/01/04 10:31:51;;;;;;;;;;;;;;;;;;4994980;28;20043;-86
2023/01/04 10:34:18;;;;;;;;;;;;;;;;;;4996463;28;19929;-86
2023/01/04 10:36:44;;;;;;;;;;;;;;;;;;5002681;28;20028;-86
2023/01/04 10:39:10;;;;;;;;;;;;;;;;;;4995490;28;19925;-87
2023/01/04 10:41:36;;;;;;;;;;;;;;;;;;4991201;28;19936;-88
2023/01/04 10:44:02;;;;;;;;;;;;;;;;;;4988321;28;19925;-87
2023/01/04 10:46:28;;;;;;;;;;;;;;;;;;4995683;28;19936;-86
2023/01/04 10:48:54;;;;;;;;;;;;;;;;;;4986979;28;20661;-88
2023/01/04 10:51:20;;;;;;;;;;;;;;;;;;5001308;28;19925;-86
2023/01/04 10:53:46;;;;;;;;;;;;;;;;;;5008037;28;20387;-88
2023/01/04 10:56:12;;;;;;;;;;;;;;;;;;4982606;28;19928;-87
2023/01/04 10:58:38;;;;;;;;;;;;;;;;;;4988245;28;19929;-87
2023/01/04 11:01:04;;;;;;;;;;;;;;;;;;4979215;28;19924;-86
2023/01/04 11:03:29;;;;;;;;;;;;;;;;;;4988044;28;19982;-86
2023/01/04 11:05:55;;;;;;;;;;;;;;;;;;4977351;28;19937;-87
2023/01/04 11:08:21;;;;;;;;;;;;;;;;;;5006196;28;19921;-86
2023/01/04 11:10:47;;;;;;;;;;;;;;;;;;4991807;28;20547;-87
2023/01/04 11:13:13;;;;;;;;;;;;;;;;;;4993374;28;20020;-87
2023/01/04 11:15:41;;;;;;;;;;;;;;;;;;4994687;28;19933;-87
2023/01/04 11:18:07;;;;;;;;;;;;;;;;;;4983047;28;19964;-88
2023/01/04 11:20:33;;;;;;;;;;;;;;;;;;4992291;28;20138;-86
2023/01/04 11:22:59;;;;;;;;;;;;;;;;;;4991627;28;19925;-86
2023/01/04 11:25:25;;;;;;;;;;;;;;;;;;5000757;28;19972;-88
2023/01/04 11:27:51;;;;;;;;;;;;;;;;;;4991292;28;19994;-87
2023/01/04 11:30:17;;;;;;;;;;;;;;;;;;4997862;28;20378;-87
2023/01/04 11:32:43;;;;;;;;;;;;;;;;;;5001961;28;19932;-87
2023/01/04 11:35:09;;;;;;;;;;;;;;;;;;4994856;28;19999;-88
2023/01/04 11:37:36;;;;;;;;;;;;;;;;;;4981887;28;19972;-88
2023/01/04 11:40:02;;;;;;;;;;;;;;;;;;4999505;28;20078;-88
2023/01/04 11:42:28;;;;;;;;;;;;;;;;;;4999784;28;20644;-88
2023/01/04 11:44:54;;;;;;;;;;;;;;;;;;4997350;28;20008;-88
2023/01/04 11:47:20;;;;;;;;;;;;;;;;;;4991037;28;19982;-86
2023/01/04 11:49:46;;;;;;;;;;;;;;;;;;4976752;28;19975;-89
2023/01/04 11:52:12;;;;;;;;;;;;;;;;;;4994078;28;19929;-88
2023/01/04 11:54:38;;;;;;;;;;;;;;;;;;5003560;28;19970;-88
2023/01/04 11:57:09;;;;;;;;;;;;;;;;;;4976621;28;19921;-88
2023/01/04 11:59:35;;;;;;;;;;;;;;;;;;5000784;28;19921;-86
2023/01/04 12:02:01;;;;;;;;;;;;;;;;;;4974684;28;20280;-87
2023/01/04 12:04:27;;;;;;;;;;;;;;;;;;4991526;28;20002;-87
2023/01/04 12:06:53;;;;;;;;;;;;;;;;;;4998751;28;20305;-86
2023/01/04 12:09:19;;;;;;;;;;;;;;;;;;5005464;28;19936;-86
2023/01/04 12:11:45;;;;;;;;;;;;;;;;;;4982084;28;20407;-86
2023/01/04 12:14:11;;;;;;;;;;;;;;;;;;4997165;28;22176;-86
2023/01/04 12:16:37;;;;;;;;;;;;;;;;;;5002973;28;19921;-86
2023/01/04 12:19:03;;;;;;;;;;;;;;;;;;5000838;28;19921;-86
2023/01/04 12:21:29;;;;;;;;;;;;;;;;;;5003430;28;19929;-86
2023/01/04 12:23:55;;;;;;;;;;;;;;;;;;4975430;28;19935;-86
2023/01/04 12:26:24;;;;;;;;;;;;;;;;;;4982689;28;19983;-86
2023/01/04 12:28:57;;;;;;;;;;;;;;;;;;4998612;28;20378;-86
2023/01/04 12:31:23;;;;;;;;;;;;;;;;;;5007234;28;20403;-85
2023/01/04 12:33:50;;;;;;;;;;;;;;;;;;4995730;28;20342;-86
2023/01/04 12:36:16;;;;;;;;;;;;;;;;;;4992407;28;19929;-86
2023/01/04 12:38:42;;;;;;;;;;;;;;;;;;5002077;28;19925;-86
2023/01/04 12:41:08;;;;;;;;;;;;;;;;;;4997383;28;19957;-86
2023/01/04 12:43:34;;;;;;;;;;;;;;;;;;5003164;28;20392;-87
2023/01/04 12:49:02;;;;;;;;;;;;;;;;;;5004672;28;19933;-86
2023/01/04 12:49:04;;;;;;;;;;;;;;;;;;5004574;28;19925;-85
2023/01/04 12:51:30;;;;;;;;;;;;;;;;;;5006929;28;20026;-85
2023/01/04 12:53:56;;;;;;;;;;;;;;;;;;4999199;28;20367;-85
2023/01/04 12:59:26;;;;;;;;;;;;;;;;;;5275373;22;20036;-87
2023/01/04 13:01:52;;;;;;;;;;;;;;;;;;5026694;28;20350;-87
2023/01/04 13:04:18;;;;;;;;;;;;;;;;;;5013891;28;19924;-86
2023/01/04 13:06:44;;;;;;;;;;;;;;;;;;5031406;28;20016;-86
2023/01/04 13:09:10;;;;;;;;;;;;;;;;;;5026607;28;19935;-86
2023/01/04 13:11:36;;;;;;;;;;;;;;;;;;5020115;28;19920;-85
2023/01/04 13:14:02;;;;;;;;;;;;;;;;;;5011989;28;19924;-86
2023/01/04 13:16:28;;;;;;;;;;;;;;;;;;5021405;28;19921;-86
2023/01/04 13:18:54;;;;;;;;;;;;;;;;;;5029657;28;19929;-85
2023/01/04 13:21:20;;;;;;;;;;;;;;;;;;5033225;28;19929;-85
2023/01/04 13:23:46;;;;;;;;;;;;;;;;;;5035581;28;20345;-86
2023/01/04 13:26:12;;;;;;;;;;;;;;;;;;5012257;28;19933;-86
2023/01/04 13:28:38;;;;;;;;;;;;;;;;;;5016409;28;19921;-85
2023/01/04 13:31:03;;;;;;;;;;;;;;;;;;5024548;28;19925;-84
2023/01/04 13:33:31;;;;;;;;;;;;;;;;;;5039938;28;19921;-85
2023/01/04 13:35:57;;;;;;;;;;;;;;;;;;5026260;28;19936;-86
2023/01/04 13:38:23;;;;;;;;;;;;;;;;;;5040335;28;19925;-85
2023/01/04 13:40:49;;;;;;;;;;;;;;;;;;5049952;28;19929;-85
2023/01/04 13:43:14;;;;;;;;;;;;;;;;;;5029228;28;19921;-84
2023/01/04 13:45:40;;;;;;;;;;;;;;;;;;5031632;28;19932;-84
2023/01/04 13:48:06;;;;;;;;;;;;;;;;;;5027107;28;19964;-84
2023/01/04 13:50:32;;;;;;;;;;;;;;;;;;5037181;28;19936;-85
2023/01/04 13:52:58;;;;;;;;;;;;;;;;;;5008117;28;19931;-85
2023/01/04 13:55:26;;;;;;;;;;;;;;;;;;5024959;28;19924;-84
2023/01/04 13:57:52;;;;;;;;;;;;;;;;;;5023471;28;19921;-86
2023/01/04 14:00:18;;;;;;;;;;;;;;;;;;5029285;28;20379;-85
2023/01/04 14:02:44;;;;;;;;;;;;;;;;;;5028965;28;19933;-84
2023/01/04 14:05:10;;;;;;;;;;;;;;;;;;5015311;28;19924;-84
2023/01/04 14:07:36;;;;;;;;;;;;;;;;;;5009809;28;19937;-85
2023/01/04 14:10:02;;;;;;;;;;;;;;;;;;5005075;28;19959;-85
2023/01/04 14:12:28;;;;;;;;;;;;;;;;;;5024493;28;20416;-85
2023/01/04 14:14:57;;;;;;;;;;;;;;;;;;5015573;28;19920;-84
2023/01/04 14:17:23;;;;;;;;;;;;;;;;;;5013026;28;19928;-84
2023/01/04 14:19:49;;;;;;;;;;;;;;;;;;5030865;28;20368;-84
2023/01/04 14:22:15;;;;;;;;;;;;;;;;;;5022585;28;19925;-85
2023/01/04 14:24:41;;;;;;;;;;;;;;;;;;5003526;28;19936;-85
2023/01/04 14:27:07;;;;;;;;;;;;;;;;;;4993385;28;19939;-84
2023/01/04 14:35:47;;;;;;;;;;;;;;;;;;5343761;22;19933;-86
2023/01/04 14:38:34;;;;;;;;;;;;;;;;;;5006514;28;19935;-90
2023/01/04 14:44:51;;;;;;;;;;;;;;;;;;;;;
2023/01/04 14:54:10;;;;;;;;;;;;;;;;;;;;;
2023/01/04 15:15:10;;;;;;;;;;;;;;;;;;6168241;22;19983;-85
2023/01/04 18:17:19;;;;;;;;;;;;;;;;;;4960804;24;19938;-87
2023/01/04 18:23:06;;;;;;;;;;;;;;;;;;;;;
2023/01/04 18:26:08;;;;;;;;;;;;;;;;;;;;;
2023/01/04 18:28:54;;;;;;;;;;;;;;;;;;;;;
2023/01/04 18:31:23;;;;;;;;;;;;;;;;;;4747717;29;19982;-87
2023/01/04 18:34:05;;;;;;;;;;;;;;;;;;;;;
2023/01/04 18:36:41;;;;;;;;;;;;;;;;;;;;;
2023/01/04 18:39:13;;;;;;;;;;;;;;;;;;4758993;29;19925;-86
2023/01/04 22:38:07;;;;;;;;;;;;;;;;;;5634619;24;19933;-87
